Time;durP1;ratioP1;P1;durP2;ratioP2;P2;SDS_P1;SDS_P2;PMS_P1;PMS_P2;Temp;Humidity;BMP_temperature;BMP_pressure;BME280_temperature;BME280_humidity;BME280_pressure;Samples;Min_cycle;Max_cycle;Signal;HPM_P1;HPM_P2
2021/11/11 00:01:59;;;;;;;56.92;26.10;;;;;;;4.25;68.80;98605.69;10503109;28;20048;-76
2021/11/11 00:07:33;;;;;;;43.20;25.85;;;;;;;4.20;68.95;98609.28;10502694;28;20051;-77
2021/11/11 00:13:04;;;;;;;;;;;;;;;4.24;69.30;98614.47;10465183;28;20036;-79
2021/11/11 00:18:33;;;;;;;34.40;22.27;;;;;;;4.26;68.85;98612.69;10489176;28;19927;-76
2021/11/11 00:24:02;;;;;;;46.13;24.17;;;;;;;4.24;68.95;98597.88;10475356;28;20036;-77
2021/11/11 00:29:37;;;;;;;48.25;23.88;;;;;;;4.31;69.19;98608.31;10489183;28;20048;-77
2021/11/11 00:35:28;;;;;;;62.90;24.48;;;;;;;4.31;69.41;98598.00;10475496;28;20067;-77
2021/11/11 00:41:01;;;;;;;68.53;23.67;;;;;;;4.16;69.14;98602.59;10500717;28;20441;-76
2021/11/11 00:46:28;;;;;;;52.55;24.70;;;;;;;4.13;69.81;98581.53;10487935;28;20479;-76
2021/11/11 00:51:56;;;;;;;73.97;23.33;;;;;;;4.07;70.16;98584.41;10463087;28;20056;-77
2021/11/11 00:57:20;;;;;;;71.95;24.35;;;;;;;3.98;70.71;98582.06;10486090;28;20060;-77
2021/11/11 01:02:54;;;;;;;47.83;23.38;;;;;;;3.90;70.86;98589.47;10474845;28;20070;-76
2021/11/11 01:08:25;;;;;;;53.42;22.77;;;;;;;3.93;70.41;98593.94;10463354;28;20049;-77
2021/11/11 01:14:00;;;;;;;48.20;22.08;;;;;;;3.91;70.64;98599.25;10475250;28;20041;-77
2021/11/11 01:19:38;;;;;;;40.05;21.42;;;;;;;3.94;70.30;98587.88;10475918;28;20046;-76
2021/11/11 01:25:13;;;;;;;35.15;21.17;;;;;;;4.03;70.55;98595.00;10461916;28;20052;-75
2021/11/11 01:30:39;;;;;;;84.80;22.67;;;;;;;3.97;70.78;98591.63;10471838;28;20059;-76
2021/11/11 01:36:46;;;;;;;73.38;22.77;;;;;;;3.96;70.78;98590.13;10500677;28;20049;-76
2021/11/11 01:42:27;;;;;;;48.78;21.92;;;;;;;3.91;70.67;98571.63;10488108;28;20055;-77
2021/11/11 01:47:57;;;;;;;48.03;23.40;;;;;;;3.92;71.33;98562.81;10485099;28;20055;-77
2021/11/11 01:53:33;;;;;;;43.85;22.77;;;;;;;3.93;71.13;98580.13;10486384;28;20044;-77
2021/11/11 01:59:09;;;;;;;92.30;24.20;;;;;;;3.97;71.04;98575.78;10486563;28;20036;-76
2021/11/11 02:04:51;;;;;;;51.30;23.52;;;;;;;3.99;71.23;98567.72;10486575;28;20049;-76
2021/11/11 02:10:25;;;;;;;41.75;23.35;;;;;;;3.96;71.26;98579.09;10472992;28;20055;-76
2021/11/11 02:16:07;;;;;;;38.97;24.00;;;;;;;4.08;71.00;98577.59;10487347;28;20128;-77
2021/11/11 02:22:12;;;;;;;45.03;24.13;;;;;;;4.17;71.33;98570.91;10477002;28;20048;-76
2021/11/11 02:27:51;;;;;;;46.92;23.88;;;;;;;4.20;71.24;98581.63;10463117;28;20060;-77
2021/11/11 02:33:26;;;;;;;42.72;24.33;;;;;;;4.28;71.59;98582.50;10473588;28;20044;-77
2021/11/11 02:39:06;;;;;;;40.75;23.63;;;;;;;4.30;71.33;98581.97;10485976;28;20056;-77
2021/11/11 02:44:32;;;;;;;38.22;23.60;;;;;;;4.41;71.19;98570.69;10457788;28;20044;-77
2021/11/11 02:50:12;;;;;;;38.95;23.58;;;;;;;4.49;71.08;98568.00;10483786;28;20053;-78
2021/11/11 02:56:05;;;;;;;37.50;22.88;;;;;;;4.60;70.96;98562.25;10478710;28;20040;-77
2021/11/11 03:01:39;;;;;;;36.97;24.17;;;;;;;4.57;70.79;98553.00;10481297;28;20079;-77
2021/11/11 03:07:07;;;;;;;35.30;22.80;;;;;;;4.58;71.02;98559.28;10465587;28;20763;-78
2021/11/11 03:12:59;;;;;;;31.45;21.45;;;;;;;4.61;71.29;98547.13;10484443;28;20048;-77
2021/11/11 03:24:35;;;;;;;37.13;23.80;;;;;;;4.56;71.33;98548.03;10501975;28;20500;-77
2021/11/11 03:29:59;;;;;;;37.08;23.33;;;;;;;4.63;71.60;98541.81;10490318;28;20041;-77
2021/11/11 03:35:35;;;;;;;36.47;23.67;;;;;;;4.64;71.17;98546.09;10466912;28;20044;-78
2021/11/11 03:41:11;;;;;;;35.63;23.33;;;;;;;4.67;70.88;98556.06;10490094;28;20048;-77
2021/11/11 03:46:37;;;;;;;32.15;22.25;;;;;;;4.70;71.18;98555.00;10489878;28;20040;-77
2021/11/11 03:52:19;;;;;;;32.80;22.38;;;;;;;4.74;71.30;98551.91;10466218;28;20079;-77
2021/11/11 03:57:55;;;;;;;36.97;24.00;;;;;;;4.70;70.51;98548.72;10477284;28;20124;-77
2021/11/11 04:03:46;;;;;;;35.28;23.33;;;;;;;4.70;71.21;98543.19;10489919;28;20044;-77
2021/11/11 04:09:40;;;;;;;34.92;23.45;;;;;;;4.72;71.34;98549.66;10474487;28;20090;-77
2021/11/11 04:15:22;;;;;;;37.45;23.45;;;;;;;4.79;71.03;98571.16;10480939;28;20045;-78
2021/11/11 04:21:04;;;;;;;33.58;22.42;;;;;;;4.92;71.42;98575.88;10490930;28;20040;-77
2021/11/11 04:27:16;;;;;;;33.97;23.23;;;;;;;4.98;71.28;98559.19;10490931;28;20123;-77
2021/11/11 04:32:44;;;;;;;34.67;23.50;;;;;;;4.98;71.34;98573.00;10481612;28;20406;-77
2021/11/11 05:08:45;;;;;;;44.92;25.17;;;;;;;4.84;71.30;98523.25;10499874;28;20059;-77
2021/11/11 05:14:34;;;;;;;44.60;25.98;;;;;;;4.85;71.78;98516.44;10484320;28;20061;-79
2021/11/11 05:20:10;;;;;;;37.03;24.10;;;;;;;4.92;71.59;98525.34;10461510;28;20487;-77
2021/11/11 05:25:47;;;;;;;36.45;23.40;;;;;;;5.03;71.47;98541.72;10444874;28;20086;-77
2021/11/11 05:31:22;;;;;;;35.08;23.40;;;;;;;5.03;71.21;98536.19;10455910;28;20053;-77
2021/11/11 05:36:54;;;;;;;39.65;24.63;;;;;;;5.08;71.39;98538.06;10472779;28;20063;-78
2021/11/11 05:42:48;;;;;;;40.05;24.70;;;;;;;5.02;71.58;98551.28;10479605;28;20041;-77
2021/11/11 05:48:28;;;;;;;41.22;25.80;;;;;;;4.96;72.36;98543.13;10474794;28;20403;-78
2021/11/11 05:54:10;;;;;;;37.58;23.08;;;;;;;4.84;72.32;98553.69;10433779;28;20491;-76
2021/11/11 05:59:45;;;;;;;36.70;22.35;;;;;;;4.79;71.85;98545.50;10453595;28;20067;-76
2021/11/11 06:05:15;;;;;;;35.75;21.90;;;;;;;4.79;72.97;98557.31;10427195;28;20056;-76
2021/11/11 06:11:14;;;;;;;34.13;20.90;;;;;;;4.92;72.55;98559.28;10452475;28;20083;-76
2021/11/11 06:17:05;;;;;;;33.50;22.00;;;;;;;4.97;72.73;98560.47;10462915;28;20121;-77
2021/11/11 06:23:17;;;;;;;34.90;21.98;;;;;;;5.00;72.92;98557.34;10457893;28;20058;-76
2021/11/11 06:29:04;;;;;;;36.50;22.23;;;;;;;4.96;72.66;98537.59;10475543;28;20056;-80
2021/11/11 06:34:35;;;;;;;37.22;23.73;;;;;;;4.87;73.43;98540.81;10493839;28;20128;-80
2021/11/11 06:40:18;;;;;;;36.55;22.00;;;;;;;4.78;73.68;98550.28;10484385;28;20040;-77
2021/11/11 06:46:06;;;;;;;38.80;23.52;;;;;;;4.77;73.36;98559.13;10495067;28;20036;-79
2021/11/11 06:51:48;;;;;;;34.58;21.55;;;;;;;4.87;73.54;98574.00;10476113;28;20054;-79
2021/11/11 06:57:13;;;;;;;30.92;19.83;;;;;;;4.91;73.41;98574.41;10492351;28;20044;-81
2021/11/11 07:02:39;;;;;;;31.85;20.05;;;;;;;4.97;73.43;98566.72;10487144;28;20047;-81
2021/11/11 07:08:05;;;;;;;33.40;21.15;;;;;;;5.00;73.34;98581.50;10478458;28;20037;-78
2021/11/11 07:13:27;;;;;;;33.83;20.00;;;;;;;4.99;73.55;98585.56;10492561;28;20040;-82
2021/11/11 07:18:49;;;;;;;29.23;19.83;;;;;;;5.01;73.59;98588.53;10478190;28;20102;-81
2021/11/11 07:24:13;;;;;;;32.85;20.63;;;;;;;5.00;73.82;98589.81;10505259;28;20056;-81
2021/11/11 07:29:34;;;;;;;33.97;21.45;;;;;;;5.00;73.87;98595.34;10490861;28;20422;-81
2021/11/11 07:34:56;;;;;;;31.58;20.88;;;;;;;5.13;73.45;98601.59;10463742;28;20044;-79
2021/11/11 07:40:19;;;;;;;36.25;21.85;;;;;;;5.34;73.41;98596.09;10476625;28;20566;-79
2021/11/11 07:45:40;;;;;;;36.35;22.08;;;;;;;5.40;73.38;98595.94;10490091;28;20093;-79
2021/11/11 07:51:04;;;;;;;32.85;20.83;;;;;;;5.44;72.79;98601.91;10490229;28;20151;-79
2021/11/11 07:56:26;;;;;;;34.83;20.88;;;;;;;5.50;73.08;98604.53;10489723;28;20101;-79
2021/11/11 08:01:47;;;;;;;33.97;20.98;;;;;;;5.57;73.37;98598.31;10489123;28;20071;-81
2021/11/11 08:07:11;;;;;;;35.20;21.45;;;;;;;5.61;73.43;98584.88;10489263;28;20041;-80
2021/11/11 08:12:32;;;;;;;34.70;21.75;;;;;;;5.67;72.93;98585.47;10461331;28;20051;-81
2021/11/11 08:17:54;;;;;;;34.58;22.02;;;;;;;5.65;73.23;98596.38;10488827;28;20040;-82
2021/11/11 08:23:19;;;;;;;34.35;21.65;;;;;;;5.78;73.05;98603.84;10461657;28;20036;-78
2021/11/11 08:28:41;;;;;;;32.90;21.10;;;;;;;5.77;72.78;98605.88;10489174;28;20150;-81
2021/11/11 08:34:03;;;;;;;30.88;19.95;;;;;;;5.74;73.06;98595.88;10474021;28;20052;-79
2021/11/11 08:39:24;;;;;;;30.23;20.75;;;;;;;5.86;72.89;98597.09;10460688;28;20182;-81
2021/11/11 08:44:45;;;;;;;36.28;22.15;;;;;;;5.86;72.57;98586.00;10487027;28;20055;-81
2021/11/11 08:50:08;;;;;;;34.22;22.17;;;;;;;5.87;72.66;98595.78;10473607;28;20083;-79
2021/11/11 08:55:31;;;;;;;32.45;20.70;;;;;;;5.92;72.40;98600.50;10500293;28;20045;-78
2021/11/11 09:00:52;;;;;;;34.22;21.55;;;;;;;6.00;72.44;98595.00;10486582;28;20041;-81
2021/11/11 09:06:15;;;;;;;37.45;22.75;;;;;;;6.00;72.30;98586.69;10445483;28;20476;-78
2021/11/11 09:11:36;;;;;;;35.45;22.27;;;;;;;5.97;72.79;98591.28;10458697;28;20484;-81
2021/11/11 09:16:58;;;;;;;36.38;22.77;;;;;;;6.02;72.42;98593.19;10417494;28;20457;-80
2021/11/11 09:22:19;;;;;;;35.00;20.63;;;;;;;6.08;72.55;98600.59;10431167;28;20408;-81
2021/11/11 09:27:40;;;;;;;37.05;22.98;;;;;;;6.20;72.52;98607.34;10444074;28;20045;-78
2021/11/11 09:33:02;;;;;;;36.47;23.33;;;;;;;6.28;72.58;98591.50;10431392;28;20051;-81
2021/11/11 09:38:23;;;;;;;37.67;23.20;;;;;;;6.24;72.04;98591.09;10444197;28;20462;-80
2021/11/11 09:43:44;;;;;;;37.40;23.00;;;;;;;6.30;72.30;98602.78;10430225;28;20048;-82
2021/11/11 09:49:05;;;;;;;34.45;21.30;;;;;;;6.23;72.18;98600.69;10428981;28;20377;-82
2021/11/11 09:59:47;;;;;;;35.58;21.85;;;;;;;6.17;71.55;98602.88;10434663;28;20103;-81
2021/11/11 10:05:10;;;;;;;31.30;20.40;;;;;;;6.15;71.58;98597.13;10462396;28;20056;-80
2021/11/11 10:10:37;;;;;;;35.25;21.73;;;;;;;6.16;71.86;98601.38;10484681;28;20048;-78
2021/11/11 10:16:15;;;;;;;34.47;21.75;;;;;;;6.15;71.84;98599.91;10458312;28;20075;-80
2021/11/11 10:21:54;;;;;;;34.50;22.88;;;;;;;6.16;72.04;98599.34;10483887;28;20078;-81
2021/11/11 10:27:28;;;;;;;35.17;22.45;;;;;;;6.29;71.89;98593.72;10498030;28;20483;-83
2021/11/11 10:33:14;;;;;;;34.40;20.73;;;;;;;6.29;71.96;98599.28;10485431;28;20472;-83
2021/11/11 10:38:35;;;;;;;34.90;22.65;;;;;;;6.33;71.65;98601.69;10470017;28;20056;-82
2021/11/11 10:43:55;;;;;;;32.63;20.92;;;;;;;6.24;71.87;98602.94;10469314;28;20052;-82
2021/11/11 10:49:31;;;;;;;38.37;23.50;;;;;;;6.22;71.61;98596.44;10483539;28;20091;-81
2021/11/11 10:55:12;;;;;;;36.45;20.42;;;;;;;6.20;71.51;98601.81;10483302;28;20484;-79
2021/11/11 11:01:03;;;;;;;32.53;20.05;;;;;;;6.13;71.84;98600.47;10483193;28;20048;-76
2021/11/11 11:06:27;;;;;;;31.63;20.80;;;;;;;6.03;71.75;98600.19;10460942;28;20040;-78
2021/11/11 11:11:48;;;;;;;34.00;21.50;;;;;;;5.99;71.45;98588.00;10429098;28;20072;-80
2021/11/11 11:17:09;;;;;;;36.28;22.88;;;;;;;6.05;72.15;98590.59;10429965;28;20052;-80
2021/11/11 11:22:30;;;;;;;33.25;21.08;;;;;;;6.13;72.09;98592.13;10449283;28;20045;-77
2021/11/11 11:27:51;;;;;;;35.17;21.67;;;;;;;6.10;71.69;98575.88;10436301;28;20501;-77
2021/11/11 11:33:19;;;;;;;34.42;21.98;;;;;;;6.12;71.51;98560.16;10435253;28;20050;-76
2021/11/11 11:38:49;;;;;;;35.95;21.73;;;;;;;6.09;71.82;98564.03;10439739;28;20039;-76
2021/11/11 11:44:35;;;;;;;40.70;23.13;;;;;;;6.18;71.47;98560.75;10460556;28;20123;-77
2021/11/11 11:50:05;;;;;;;37.47;23.00;;;;;;;6.19;71.61;98562.25;10488107;28;20075;-77
2021/11/11 11:55:36;;;;;;;36.08;22.95;;;;;;;6.22;71.63;98555.59;10461846;28;20484;-76
2021/11/11 12:01:30;;;;;;;39.38;24.30;;;;;;;6.25;71.81;98548.97;10478243;28;20044;-76
2021/11/11 12:07:22;;;;;;;39.35;23.67;;;;;;;6.42;71.81;98542.94;10466542;28;20510;-78
2021/11/11 12:13:44;;;;;;;39.08;23.92;;;;;;;6.40;72.04;98562.19;10449231;28;20045;-77
2021/11/11 12:42:08;;;;;;;40.25;24.58;;;;;;;6.70;71.43;98569.16;10463634;28;20048;-77
2021/11/11 12:47:37;;;;;;;40.05;24.25;;;;;;;6.60;71.66;98560.59;10456868;28;20480;-77
2021/11/11 12:53:12;;;;;;;41.42;23.67;;;;;;;6.67;71.61;98554.34;10465256;28;20131;-78
2021/11/11 12:58:58;;;;;;;35.17;22.10;;;;;;;6.70;71.85;98544.91;10468101;28;20048;-77
2021/11/11 13:04:19;;;;;;;35.63;21.80;;;;;;;6.73;71.45;98549.34;10463975;28;20044;-77
2021/11/11 13:09:40;;;;;;;37.15;22.40;;;;;;;6.71;71.36;98556.75;10478753;28;20041;-77
2021/11/11 13:15:38;;;;;;;40.42;23.38;;;;;;;6.72;71.11;98561.00;10462244;28;20118;-75
2021/11/11 14:00:50;;;;;;;38.70;22.40;;;;;;;6.41;71.69;98562.91;10487020;28;20052;-77
2021/11/11 16:23:46;;;;;;;44.10;25.92;;;;;;;6.02;72.51;98550.88;10423911;28;20045;-75
2021/11/11 16:28:29;;;;;;;44.92;25.50;;;;;;;6.08;73.13;98540.38;10449829;28;20076;-76
2021/11/11 16:33:51;;;;;;;43.58;24.70;;;;;;;6.09;72.61;98543.88;10406322;28;20092;-77
2021/11/11 16:39:14;;;;;;;45.78;26.52;;;;;;;6.13;72.68;98552.59;10424660;28;20476;-76
2021/11/11 16:44:35;;;;;;;50.65;28.60;;;;;;;6.08;72.97;98568.09;10426249;28;20053;-75
2021/11/11 16:49:57;;;;;;;54.17;30.05;;;;;;;6.00;73.27;98570.81;10418861;28;20076;-72
2021/11/11 16:55:18;;;;;;;46.38;28.73;;;;;;;6.06;73.24;98572.69;10432949;28;20045;-81
2021/11/11 17:00:39;;;;;;;47.90;28.23;;;;;;;6.06;73.17;98567.13;10431567;28;20098;-82
2021/11/11 17:06:00;;;;;;;45.15;27.05;;;;;;;6.13;73.00;98581.06;10432053;28;20048;-74
2021/11/11 17:11:22;;;;;;;51.53;27.35;;;;;;;6.06;72.93;98592.09;10417491;28;20065;-81
2021/11/11 17:16:51;;;;;;;50.90;28.10;;;;;;;5.91;73.04;98582.38;10430666;28;20127;-79
2021/11/11 17:22:15;;;;;;;46.38;27.30;;;;;;;5.98;73.30;98589.25;10446364;28;20472;-74
2021/11/11 17:27:54;;;;;;;45.40;26.48;;;;;;;6.00;73.54;98587.44;10430631;28;20045;-76
2021/11/11 17:33:16;;;;;;;38.97;23.23;;;;;;;6.06;73.26;98581.72;10434890;28;20067;-76
2021/11/11 17:38:38;;;;;;;44.67;24.73;;;;;;;6.17;73.24;98591.78;10430293;28;20475;-77
2021/11/11 17:44:06;;;;;;;46.30;25.95;;;;;;;6.20;72.88;98596.25;10416238;28;20052;-75
2021/11/11 17:49:32;;;;;;;43.08;24.15;;;;;;;6.23;73.02;98600.69;10432195;28;20068;-83
2021/11/11 17:54:56;;;;;;;42.30;24.05;;;;;;;6.16;72.93;98595.84;10431526;28;20072;-80
2021/11/11 18:00:17;;;;;;;41.47;23.42;;;;;;;6.24;73.01;98597.38;10444112;28;20052;-82
2021/11/11 18:05:38;;;;;;;43.85;24.42;;;;;;;6.34;72.96;98586.53;10415832;28;20107;-82
2021/11/11 18:11:07;;;;;;;48.15;25.45;;;;;;;6.32;72.64;98598.19;10415678;28;20389;-84
2021/11/11 18:16:49;;;;;;;47.40;25.45;;;;;;;6.33;73.02;98590.59;10447260;28;20459;-83
2021/11/11 18:22:32;;;;;;;45.58;26.05;;;;;;;6.28;72.47;98600.56;10436100;28;20447;-83
2021/11/11 18:28:07;;;;;;;45.25;25.65;;;;;;;6.08;72.74;98589.50;10433387;28;20045;-83
2021/11/11 18:40:08;;;;;;;43.60;26.08;;;;;;;6.13;72.94;98596.94;10452019;28;20115;-82
2021/11/11 18:45:42;;;;;;;48.63;26.35;;;;;;;6.12;72.82;98601.00;10430987;28;20098;-82
2021/11/11 18:51:15;;;;;;;45.30;25.52;;;;;;;6.21;73.19;98611.59;10443682;28;20472;-80
2021/11/11 18:57:06;;;;;;;43.92;24.23;;;;;;;6.22;73.07;98602.00;10437919;28;20131;-77
2021/11/11 19:08:47;;;;;;;;;;;;;;;;;;;;;
2021/11/11 19:14:25;;;;;;;52.70;27.67;;;;;;;6.22;73.09;98597.19;10422682;28;20549;-75
2021/11/11 19:19:45;;;;;;;43.80;26.02;;;;;;;6.27;73.10;98595.53;10428200;28;20033;-75
2021/11/11 19:25:07;;;;;;;47.30;26.45;;;;;;;6.29;73.26;98595.75;10414039;28;20385;-75
2021/11/11 19:30:28;;;;;;;44.33;25.13;;;;;;;6.34;72.90;98591.34;10413987;28;20049;-75
2021/11/11 19:36:04;;;;;;;43.65;24.05;;;;;;;6.35;72.71;98590.78;10413905;28;20548;-77
2021/11/11 21:05:11;;;;;;;49.50;28.13;;;;;;;6.33;73.07;98582.28;10431888;28;20048;-75
2021/11/11 21:16:20;;;;;;;53.95;28.33;;;;;;;6.37;72.56;98585.47;10433340;28;20051;-74
2021/11/11 21:22:01;;;;;;;51.20;27.45;;;;;;;6.34;72.74;98578.22;10432884;28;20052;-74
2021/11/11 21:27:31;;;;;;;45.85;27.33;;;;;;;6.35;72.69;98576.91;10430591;28;20381;-75
2021/11/11 21:32:52;;;;;;;47.92;27.10;;;;;;;6.33;72.90;98565.63;10432702;28;20475;-76
2021/11/11 21:38:28;;;;;;;54.03;28.55;;;;;;;6.40;72.68;98572.53;10416553;28;20053;-75
2021/11/11 21:43:51;;;;;;;50.63;28.42;;;;;;;6.39;72.69;98569.00;10433719;28;20052;-73
2021/11/11 21:49:15;;;;;;;51.22;29.55;;;;;;;6.43;72.95;98558.28;10428470;28;20118;-75
2021/11/11 21:54:41;;;;;;;52.50;28.63;;;;;;;6.45;72.61;98555.72;10415509;28;20094;-77
2021/11/11 22:33:29;;;;;;;55.17;29.35;;;;;;;6.40;72.68;98531.66;10430001;28;20153;-74
2021/11/11 22:38:51;;;;;;;54.22;29.73;;;;;;;6.43;72.58;98538.88;10443118;28;20115;-74
2021/11/11 22:44:12;;;;;;;58.80;30.60;;;;;;;6.38;72.53;98537.03;10414519;28;20045;-76
2021/11/11 22:49:34;;;;;;;54.55;29.73;;;;;;;6.32;72.50;98528.09;10415374;28;20511;-77
2021/11/11 22:55:02;;;;;;;58.92;31.23;;;;;;;6.32;72.60;98533.66;10455923;28;20065;-73
2021/11/11 23:11:44;;;;;;;51.53;27.70;;;;;;;6.22;72.97;98508.47;10430478;28;20090;-74
2021/11/11 23:22:51;;;;;;;56.33;30.08;;;;;;;6.20;72.85;98502.75;10438937;28;20041;-75
2021/11/11 23:33:51;;;;;;;54.60;29.42;;;;;;;6.23;72.76;98506.44;10426612;28;20053;-75
2021/11/11 23:39:14;;;;;;;63.47;32.00;;;;;;;6.22;72.45;98511.25;10420164;28;20064;-73
2021/11/11 23:44:36;;;;;;;56.50;30.42;;;;;;;6.24;72.83;98516.25;10434548;28;20377;-76
2021/11/11 23:50:15;;;;;;;56.88;30.42;;;;;;;6.24;72.97;98513.47;10407536;28;20048;-74
